TAF KPIH
KPIH 270520Z 2706/2806 VRB06KT P6SM BKN040 FM271800 29007KT P6SM SCT060 BKN100 FM280300 15006KT P6SM BKN050 BKN100=
METAR KPIH
WC KPIH
WS KPIH
WV KPIH